Pequea, PA (17565)

9:07 AM EST on February 24, 2017 (GMT -0500)
Pequea, PA | | Change Station

Elev 463 ft 39.92 °N, 76.30 °W | Updated 2 minutes ago

Clear
Clear
60.1 °F
Feels Like 60.1 °F
N
2.0
Wind Variable Wind from West
Gusts 7.0 mph

Today
High -- | Low -- °F
--% Chance of Precip.
Yesterday
High -- | Low -- °F
Precip. -- in
Pressure 29.92 in
Visibility 10.0 miles
Clouds Clear
Dew Point 55 °F
Humidity 84%
Rainfall 0.00 in
Snow Depth Not available.
6:45 AM 5:52 PM
Waning Crescent, 5% visible
METAR KLNS 241353Z 10003KT 10SM CLR 14/13 A2992 RMK AO2 SLP130 T01440128
Pressure 29.92 in
Visibility 10.0 miles
Clouds Clear
Dew Point 55 °F
Humidity 84%
Rainfall 0.00 in
Snow Depth Not available.
6:45 AM 5:52 PM
Waning Crescent, 5% visible
METAR KLNS 241353Z 10003KT 10SM CLR 14/13 A2992 RMK AO2 SLP130 T01440128

Get Your Daily Forecast Email!

Thanks for signing up!

Be on the lookout for a verification email in your inbox.

You'll start receiving the daily forecast at 8 AM.

×

10-Day Weather Forecast

Almanac

Astronomy

Feb. 24, 2017 Rise Set
Actual Time
Civil Twilight
Nautical Twilight
Astronomical Twilight
Moon
Length of Visible Light
Length of Day
Tomorrow will be .
, % of the Moon is Illuminated

Today's Extremes

State Highs State Lows

Community

WunderPhotos

Upload Photos

1,962,540 photos uploaded!

WunderBlog® & News

Nearby

Air Quality

  Air Quality AQ Index Pollutant
Not available.

Snow Depth

Station Depth Elevation

Earthquake Activity

City Distance Mag. Time & Date
Minimum magnitude displayed is 2.5.

Coastal Water Temperatures

Place Temperature

Stations

Nearby Weather Stations

Station Location Temp. Windchill Dew Point Humidity Wind Precip. Elev Updated Type
                   

Watches & Warnings

There are currently no watches in effect.